TimeMST,TemperatureF,Dew PointF,Humidity,Sea Level PressureIn,VisibilityMPH,Wind Direction,Wind SpeedMPH,Gust SpeedMPH,PrecipitationIn,Events,Conditions,WindDirDegrees,DateUTC
12:15 AM,57.2,39.2,51,30.23,10.0,NNE,11.5,-,N/A,,Clear,30,2013-01-25 07:15:00
12:35 AM,57.2,39.2,51,30.23,10.0,NNE,10.4,-,N/A,,Clear,30,2013-01-25 07:35:00
12:55 AM,57.2,39.2,51,30.23,10.0,NNE,9.2,-,N/A,,Clear,30,2013-01-25 07:55:00
1:15 AM,55.4,39.2,54,30.23,10.0,NE,8.1,-,N/A,,Clear,50,2013-01-25 08:15:00
1:35 AM,57.2,41.0,55,30.24,10.0,NE,6.9,-,N/A,,Clear,50,2013-01-25 08:35:00
1:55 AM,55.4,41.0,58,30.25,10.0,Calm,Calm,-,N/A,,Clear,0,2013-01-25 08:55:00
2:15 AM,57.2,41.0,55,30.25,10.0,NNE,3.5,-,N/A,,Clear,30,2013-01-25 09:15:00
2:35 AM,57.2,41.0,55,30.24,10.0,NNE,10.4,-,N/A,,Clear,30,2013-01-25 09:35:00
2:55 AM,57.2,41.0,55,30.24,10.0,NNE,9.2,-,N/A,,Clear,20,2013-01-25 09:55:00
3:15 AM,55.4,41.0,58,30.24,10.0,North,5.8,-,N/A,,Clear,350,2013-01-25 10:15:00
3:55 AM,53.6,41.0,62,30.23,10.0,Calm,Calm,-,N/A,,Mostly Cloudy,0,2013-01-25 10:55:00
4:15 AM,55.4,41.0,58,30.22,10.0,Calm,Calm,-,N/A,,Mostly Cloudy,0,2013-01-25 11:15:00
4:35 AM,55.4,41.0,58,30.21,10.0,North,3.5,-,N/A,,Overcast,360,2013-01-25 11:35:00
4:55 AM,57.2,39.2,51,30.20,10.0,North,12.7,-,N/A,,Scattered Clouds,10,2013-01-25 11:55:00
5:15 AM,57.2,39.2,51,30.18,10.0,NNE,16.1,-,N/A,,Clear,20,2013-01-25 12:15:00
5:35 AM,57.2,39.2,51,30.18,10.0,North,19.6,-,N/A,,Clear,10,2013-01-25 12:35:00
5:55 AM,57.2,39.2,51,30.17,10.0,North,19.6,-,N/A,,Mostly Cloudy,10,2013-01-25 12:55:00
6:15 AM,57.2,39.2,51,30.17,10.0,NNE,19.6,-,N/A,,Mostly Cloudy,20,2013-01-25 13:15:00
6:35 AM,57.2,41.0,55,30.17,10.0,North,20.7,25.3,N/A,,Mostly Cloudy,10,2013-01-25 13:35:00
6:55 AM,57.2,41.0,55,30.19,10.0,North,18.4,-,N/A,,Mostly Cloudy,10,2013-01-25 13:55:00
7:15 AM,57.2,39.2,51,30.20,10.0,North,16.1,-,N/A,,Overcast,10,2013-01-25 14:15:00
7:35 AM,57.2,39.2,51,30.20,10.0,North,15.0,-,N/A,,Overcast,10,2013-01-25 14:35:00
7:55 AM,57.2,39.2,51,30.21,10.0,North,15.0,-,N/A,,Overcast,10,2013-01-25 14:55:00
8:15 AM,57.2,39.2,51,30.21,10.0,NNE,10.4,-,N/A,,Mostly Cloudy,20,2013-01-25 15:15:00
8:35 AM,57.2,41.0,55,30.21,10.0,NNE,11.5,-,N/A,,Partly Cloudy,20,2013-01-25 15:35:00
8:55 AM,57.2,39.2,51,30.21,10.0,North,11.5,-,N/A,,Clear,10,2013-01-25 15:55:00
9:15 AM,59.0,39.2,48,30.21,10.0,North,10.4,-,N/A,,Partly Cloudy,360,2013-01-25 16:15:00
9:35 AM,57.2,41.0,55,30.22,10.0,North,6.9,-,N/A,,Clear,350,2013-01-25 16:35:00
9:55 AM,57.2,41.0,55,30.21,10.0,North,9.2,-,N/A,,Scattered Clouds,360,2013-01-25 16:55:00
10:15 AM,59.0,39.2,48,30.20,10.0,North,15.0,21.9,N/A,,Mostly Cloudy,10,2013-01-25 17:15:00
10:35 AM,60.8,41.0,48,30.21,10.0,North,15.0,26.5,N/A,,Mostly Cloudy,10,2013-01-25 17:35:00
10:55 AM,60.8,41.0,48,30.21,10.0,NNE,15.0,19.6,N/A,,Mostly Cloudy,20,2013-01-25 17:55:00
11:15 AM,62.6,41.0,45,30.20,10.0,North,17.3,23.0,N/A,,Scattered Clouds,10,2013-01-25 18:15:00
11:35 AM,64.4,41.0,42,30.20,10.0,North,15.0,23.0,N/A,,Clear,360,2013-01-25 18:35:00
11:55 AM,64.4,41.0,42,30.20,10.0,North,11.5,-,N/A,,Clear,360,2013-01-25 18:55:00
12:15 PM,64.4,41.0,42,30.18,10.0,North,15.0,-,N/A,,Clear,360,2013-01-25 19:15:00
12:35 PM,64.4,41.0,42,30.16,10.0,North,17.3,-,N/A,,Partly Cloudy,360,2013-01-25 19:35:00
12:55 PM,66.2,41.0,40,30.14,10.0,North,18.4,-,N/A,,Partly Cloudy,10,2013-01-25 19:55:00
1:15 PM,66.2,41.0,40,30.12,10.0,North,18.4,-,N/A,,Clear,10,2013-01-25 20:15:00
1:35 PM,66.2,41.0,40,30.11,10.0,North,16.1,23.0,N/A,,Partly Cloudy,360,2013-01-25 20:35:00
1:55 PM,66.2,41.0,40,30.10,10.0,North,16.1,23.0,N/A,,Scattered Clouds,10,2013-01-25 20:55:00
2:15 PM,66.2,41.0,40,30.09,10.0,North,18.4,-,N/A,,Partly Cloudy,360,2013-01-25 21:15:00
2:35 PM,66.2,41.0,40,30.08,10.0,North,21.9,25.3,N/A,,Partly Cloudy,10,2013-01-25 21:35:00
2:55 PM,66.2,42.8,43,30.07,10.0,North,20.7,26.5,N/A,,Clear,10,2013-01-25 21:55:00
3:15 PM,66.2,42.8,43,30.07,10.0,North,20.7,24.2,N/A,,Partly Cloudy,360,2013-01-25 22:15:00
3:35 PM,66.2,42.8,43,30.07,10.0,North,16.1,-,N/A,,Partly Cloudy,360,2013-01-25 22:35:00
3:55 PM,66.2,42.8,43,30.07,10.0,North,15.0,19.6,N/A,,Clear,10,2013-01-25 22:55:00
4:15 PM,66.2,42.8,43,30.07,10.0,North,20.7,-,N/A,,Clear,10,2013-01-25 23:15:00
4:35 PM,66.2,42.8,43,30.06,10.0,North,17.3,20.7,N/A,,Partly Cloudy,10,2013-01-25 23:35:00
4:55 PM,66.2,42.8,43,30.04,10.0,North,17.3,24.2,N/A,,Scattered Clouds,10,2013-01-25 23:55:00
5:15 PM,66.2,42.8,43,30.04,10.0,North,15.0,20.7,N/A,,Mostly Cloudy,10,2013-01-26 00:15:00
5:35 PM,66.2,42.8,43,30.04,10.0,North,18.4,-,N/A,,Mostly Cloudy,10,2013-01-26 00:35:00
5:55 PM,66.2,42.8,43,30.03,10.0,North,15.0,21.9,N/A,,Partly Cloudy,10,2013-01-26 00:55:00
6:15 PM,66.2,42.8,43,30.04,10.0,North,15.0,20.7,N/A,,Clear,10,2013-01-26 01:15:00
6:35 PM,64.4,42.8,45,30.03,10.0,North,13.8,20.7,N/A,,Partly Cloudy,10,2013-01-26 01:35:00
6:55 PM,64.4,44.6,49,30.03,10.0,North,13.8,19.6,N/A,,Mostly Cloudy,10,2013-01-26 01:55:00
7:15 PM,64.4,44.6,49,30.04,10.0,North,12.7,-,N/A,,Mostly Cloudy,10,2013-01-26 02:15:00
7:35 PM,64.4,44.6,49,30.04,10.0,NNE,11.5,-,N/A,,Overcast,30,2013-01-26 02:35:00
7:55 PM,64.4,46.4,52,30.04,10.0,NNE,12.7,-,N/A,,Overcast,30,2013-01-26 02:55:00
8:15 PM,62.6,48.2,59,30.04,10.0,NE,10.4,-,N/A,,Overcast,40,2013-01-26 03:15:00
8:35 PM,62.6,48.2,59,30.04,10.0,NE,10.4,-,N/A,,Overcast,40,2013-01-26 03:35:00
8:55 PM,62.6,48.2,59,30.04,10.0,NE,11.5,-,N/A,,Overcast,50,2013-01-26 03:55:00
9:15 PM,60.8,48.2,63,30.04,10.0,NE,10.4,-,N/A,,Overcast,40,2013-01-26 04:15:00
9:35 PM,60.8,48.2,63,30.05,10.0,NE,9.2,-,N/A,,Overcast,40,2013-01-26 04:35:00
9:55 PM,59.0,50.0,72,30.06,8.0,North,3.5,-,0.01,,Overcast,10,2013-01-26 04:55:00
10:15 PM,59.0,50.0,72,30.06,6.0,Calm,Calm,-,0.02,,Haze,0,2013-01-26 05:15:00
10:35 PM,57.2,53.6,88,30.06,10.0,Calm,Calm,-,0.03,,Overcast,0,2013-01-26 05:35:00
10:55 PM,57.2,53.6,88,30.05,7.0,Calm,Calm,-,0.04,,Overcast,0,2013-01-26 05:55:00
11:15 PM,57.2,53.6,88,30.05,10.0,Calm,Calm,-,0.01,,Overcast,0,2013-01-26 06:15:00
11:55 PM,57.2,53.6,88,30.03,10.0,Calm,Calm,-,0.02,,Overcast,0,2013-01-26 06:55:00